createdAt,value
2022-12-08T00:01:55.650Z,2.97
2022-12-08T00:04:28.323Z,2.99
2022-12-08T00:07:19.660Z,3.00
2022-12-08T00:09:52.185Z,3.11
2022-12-08T00:12:24.899Z,3.14
2022-12-08T00:14:57.480Z,3.18
2022-12-08T00:17:29.957Z,3.10
2022-12-08T00:20:02.587Z,2.97
2022-12-08T00:22:35.091Z,3.08
2022-12-08T00:25:07.841Z,3.03
2022-12-08T00:27:40.416Z,2.92
2022-12-08T00:30:13.250Z,2.92
2022-12-08T00:32:45.933Z,3.03
2022-12-08T00:35:18.620Z,2.96
2022-12-08T00:37:53.964Z,2.96
2022-12-08T00:40:29.316Z,2.98
2022-12-08T00:43:01.811Z,3.05
2022-12-08T00:45:34.348Z,3.04
2022-12-08T00:48:07.176Z,2.99
2022-12-08T00:50:39.703Z,3.06
2022-12-08T00:53:12.261Z,3.11
2022-12-08T00:55:44.755Z,3.09
2022-12-08T00:58:17.343Z,2.96
2022-12-08T01:00:50.080Z,3.07
2022-12-08T01:03:22.696Z,3.04
2022-12-08T01:05:55.355Z,3.09
2022-12-08T01:08:27.931Z,3.18
2022-12-08T01:11:11.963Z,3.20
2022-12-08T01:13:47.443Z,3.14
2022-12-08T01:16:29.588Z,3.15
2022-12-08T01:19:03.792Z,3.10
2022-12-08T01:21:36.340Z,3.26
2022-12-08T01:24:18.933Z,3.17
2022-12-08T01:26:51.678Z,3.03
2022-12-08T01:29:24.474Z,3.05
2022-12-08T01:31:57.126Z,3.13
2022-12-08T01:34:29.701Z,3.28
2022-12-08T01:37:02.270Z,3.21
2022-12-08T01:39:35.659Z,3.07
2022-12-08T01:42:21.780Z,3.20
2022-12-08T01:44:59.522Z,3.32
2022-12-08T01:47:47.187Z,3.21
2022-12-08T01:50:22.096Z,3.32
2022-12-08T01:53:10.084Z,3.29
2022-12-08T01:55:53.501Z,3.41
2022-12-08T01:58:35.642Z,3.32
2022-12-08T02:01:08.469Z,3.27
2022-12-08T02:03:49.097Z,3.26
2022-12-08T02:06:21.940Z,3.30
2022-12-08T02:08:55.286Z,3.29
2022-12-08T02:11:27.916Z,3.28
2022-12-08T02:14:06.391Z,3.15
2022-12-08T02:17:58.328Z,3.34
2022-12-08T02:20:48.230Z,3.31
2022-12-08T02:23:36.826Z,3.41
2022-12-08T02:26:46.436Z,3.17
2022-12-08T02:29:52.174Z,3.21
2022-12-08T02:33:18.734Z,3.23
2022-12-08T02:36:02.911Z,3.30
2022-12-08T02:39:05.918Z,3.28
2022-12-08T02:41:47.265Z,3.36
2022-12-08T02:44:36.236Z,3.15
2022-12-08T02:47:16.564Z,3.11
2022-12-08T02:49:49.258Z,3.25
2022-12-08T02:52:21.611Z,3.21
2022-12-08T02:55:03.478Z,3.24
2022-12-08T02:57:54.011Z,3.31
2022-12-08T03:00:48.653Z,3.18
2022-12-08T03:03:46.009Z,3.26
2022-12-08T03:06:48.761Z,3.16
2022-12-08T03:09:46.869Z,3.11
2022-12-08T03:12:43.538Z,3.11
2022-12-08T03:15:21.449Z,3.22
2022-12-08T03:17:59.426Z,3.32
2022-12-08T03:20:35.030Z,3.11
2022-12-08T03:23:13.168Z,3.15
2022-12-08T03:25:59.600Z,3.20
2022-12-08T03:28:32.318Z,3.33
2022-12-08T03:31:12.180Z,3.01
2022-12-08T03:33:51.237Z,3.27
2022-12-08T03:36:25.075Z,3.15
2022-12-08T03:38:57.723Z,3.23
2022-12-08T03:41:30.293Z,3.18
2022-12-08T03:44:02.950Z,3.19
2022-12-08T03:46:35.479Z,3.26
2022-12-08T03:49:08.034Z,3.43
2022-12-08T03:51:40.746Z,3.24
2022-12-08T03:54:13.552Z,3.33
2022-12-08T03:56:46.165Z,3.37
2022-12-08T03:59:18.741Z,3.33
2022-12-08T04:01:51.346Z,3.43
2022-12-08T04:04:24.015Z,3.42
2022-12-08T04:06:56.737Z,3.43
2022-12-08T04:09:29.454Z,3.39
2022-12-08T04:12:02.000Z,3.55
2022-12-08T04:14:34.707Z,3.42
2022-12-08T04:17:07.327Z,3.43
2022-12-08T04:19:40.947Z,3.37
2022-12-08T04:22:13.513Z,3.28
2022-12-08T04:24:46.026Z,3.33
2022-12-08T04:27:18.590Z,3.28
2022-12-08T04:29:51.150Z,3.30
2022-12-08T04:32:23.724Z,3.44
2022-12-08T04:34:56.264Z,3.51
2022-12-08T04:37:29.093Z,3.37
2022-12-08T04:40:01.778Z,3.48
2022-12-08T04:42:34.580Z,3.41
2022-12-08T04:45:07.651Z,3.32
2022-12-08T04:47:40.319Z,3.42
2022-12-08T04:50:13.198Z,3.38
2022-12-08T04:52:45.825Z,3.43
2022-12-08T04:55:18.643Z,3.32
2022-12-08T04:57:51.369Z,3.36
2022-12-08T05:00:23.949Z,3.29
2022-12-08T05:02:56.518Z,3.34
2022-12-08T05:05:29.132Z,3.22
2022-12-08T05:08:01.797Z,3.05
2022-12-08T05:10:34.662Z,3.12
2022-12-08T05:13:07.531Z,3.07
2022-12-08T05:15:40.097Z,3.25
2022-12-08T05:18:14.657Z,3.20
2022-12-08T05:20:47.449Z,3.32
2022-12-08T05:23:20.022Z,3.32
2022-12-08T05:25:53.342Z,3.22
2022-12-08T05:28:41.176Z,3.21
2022-12-08T05:31:19.571Z,3.21
2022-12-08T05:34:02.922Z,3.20
2022-12-08T05:36:36.387Z,3.28
2022-12-08T05:39:15.098Z,3.29
2022-12-08T05:41:47.702Z,3.34
2022-12-08T05:44:20.313Z,3.20
2022-12-08T05:46:53.148Z,3.18
2022-12-08T05:49:28.867Z,2.76
2022-12-08T05:52:09.974Z,2.96
2022-12-08T05:54:44.674Z,3.00
2022-12-08T05:57:22.203Z,3.14
2022-12-08T05:59:59.317Z,3.28
2022-12-08T06:02:39.221Z,3.22
2022-12-08T06:05:14.585Z,3.14
2022-12-08T06:07:47.418Z,2.93
2022-12-08T06:10:21.394Z,3.05
2022-12-08T06:12:54.233Z,3.23
2022-12-08T06:15:28.300Z,3.23
2022-12-08T06:18:01.223Z,3.00
2022-12-08T06:20:40.789Z,3.18
2022-12-08T06:23:16.850Z,3.06
2022-12-08T06:25:50.126Z,3.08
2022-12-08T06:28:25.229Z,3.15
2022-12-08T06:31:01.116Z,3.24
2022-12-08T06:33:33.749Z,3.25
2022-12-08T06:36:08.079Z,3.28
2022-12-08T06:38:44.071Z,3.40
2022-12-08T06:41:18.617Z,3.30
2022-12-08T06:43:54.829Z,3.08
2022-12-08T06:46:27.658Z,3.10
2022-12-08T06:49:00.258Z,2.99
2022-12-08T06:51:37.008Z,3.02
2022-12-08T06:54:10.901Z,3.24
2022-12-08T06:56:47.154Z,3.23
2022-12-08T06:59:20.259Z,3.41
2022-12-08T07:01:53.084Z,3.45
2022-12-08T07:04:27.812Z,3.40
2022-12-08T07:07:03.510Z,3.28
2022-12-08T07:09:42.062Z,3.42
2022-12-08T07:12:18.135Z,3.21
2022-12-08T07:14:51.052Z,3.34
2022-12-08T07:17:24.263Z,3.11
2022-12-08T07:19:59.796Z,3.33
2022-12-08T07:22:37.373Z,3.36
2022-12-08T07:25:10.212Z,3.20
2022-12-08T07:27:53.165Z,3.06
2022-12-08T07:30:28.292Z,3.22
2022-12-08T07:33:08.221Z,3.04
2022-12-08T07:36:26.380Z,3.24
2022-12-08T07:39:04.413Z,3.17
2022-12-08T07:41:49.338Z,3.23
2022-12-08T07:44:27.687Z,3.03
2022-12-08T07:47:00.368Z,3.21
2022-12-08T07:49:35.394Z,3.21
2022-12-08T07:52:08.229Z,3.21
2022-12-08T07:54:40.801Z,3.22
2022-12-08T07:57:13.400Z,3.15
2022-12-08T07:59:45.945Z,2.95
2022-12-08T08:02:25.736Z,3.02
2022-12-08T08:04:58.997Z,3.13
2022-12-08T08:07:32.181Z,2.76
2022-12-08T08:10:06.890Z,2.80
2022-12-08T08:12:40.394Z,2.78
2022-12-08T08:15:13.394Z,2.67
2022-12-08T08:17:53.317Z,2.86
2022-12-08T08:20:27.087Z,2.58
2022-12-08T08:22:59.874Z,2.69
2022-12-08T08:25:32.473Z,3.00
2022-12-08T08:28:05.230Z,2.99
2022-12-08T08:30:37.946Z,2.88
2022-12-08T08:33:13.473Z,2.90
2022-12-08T08:35:46.425Z,3.17
2022-12-08T08:38:20.961Z,3.27
2022-12-08T08:40:54.174Z,3.31
2022-12-08T08:43:36.075Z,3.26
2022-12-08T08:46:13.649Z,3.24
2022-12-08T08:48:47.977Z,3.31
2022-12-08T08:51:20.618Z,3.34
2022-12-08T08:54:02.208Z,3.39
2022-12-08T08:56:35.250Z,3.51
2022-12-08T08:59:08.109Z,3.51
2022-12-08T09:01:40.933Z,3.51
2022-12-08T09:04:19.504Z,3.49
2022-12-08T09:06:52.414Z,3.26
2022-12-08T09:09:33.327Z,3.49
2022-12-08T09:12:07.365Z,3.17
2022-12-08T09:14:46.167Z,3.43
2022-12-08T09:17:21.835Z,3.50
2022-12-08T09:19:57.210Z,3.63
2022-12-08T09:22:32.567Z,3.65
2022-12-08T09:25:05.961Z,3.74
2022-12-08T09:27:44.967Z,3.54
2022-12-08T09:30:18.825Z,3.66
2022-12-08T09:32:56.857Z,3.73
2022-12-08T09:35:45.865Z,3.78
2022-12-08T09:38:25.872Z,3.77
2022-12-08T09:41:00.367Z,3.92
2022-12-08T09:44:06.026Z,3.66
2022-12-08T09:46:44.214Z,3.76
2022-12-08T09:49:53.465Z,3.67
2022-12-08T09:52:36.523Z,3.72
2022-12-08T09:55:22.548Z,3.77
2022-12-08T09:58:10.312Z,3.85
2022-12-08T10:00:48.040Z,3.90
2022-12-08T10:03:29.101Z,3.80
2022-12-08T10:06:24.876Z,3.65
2022-12-08T10:09:42.173Z,3.71
2022-12-08T10:12:44.742Z,3.79
2022-12-08T10:15:49.468Z,3.77
2022-12-08T10:18:30.905Z,3.62
2022-12-08T10:21:26.033Z,3.73
2022-12-08T10:24:43.521Z,3.69
2022-12-08T10:27:16.154Z,3.51
2022-12-08T10:29:49.090Z,3.57
2022-12-08T10:32:34.066Z,3.59
2022-12-08T10:35:12.975Z,3.81
2022-12-08T10:38:03.957Z,3.64
2022-12-08T10:40:43.819Z,3.65
2022-12-08T10:43:26.183Z,3.56
2022-12-08T10:46:30.696Z,3.63
2022-12-08T10:49:06.623Z,3.59
2022-12-08T10:51:43.584Z,3.42
2022-12-08T10:55:02.447Z,3.74
2022-12-08T10:57:39.192Z,3.67
2022-12-08T11:00:38.836Z,3.39
2022-12-08T11:03:32.294Z,3.36
2022-12-08T11:06:44.653Z,3.49
2022-12-08T11:09:20.205Z,3.40
2022-12-08T11:12:22.416Z,3.31
2022-12-08T11:15:03.485Z,3.32
2022-12-08T11:17:41.264Z,3.17
2022-12-08T11:20:15.399Z,3.34
2022-12-08T11:22:56.522Z,3.43
2022-12-08T11:25:32.370Z,3.19
2022-12-08T11:28:12.605Z,3.35
2022-12-08T11:31:07.269Z,3.27
2022-12-08T11:33:46.852Z,3.30
2022-12-08T11:36:47.504Z,3.58
2022-12-08T11:39:26.868Z,3.62
2022-12-08T11:42:23.405Z,3.56
2022-12-08T11:45:22.090Z,3.55
2022-12-08T11:48:29.470Z,3.30
2022-12-08T11:51:35.148Z,3.39
2022-12-08T11:54:22.188Z,3.32
2022-12-08T11:58:17.070Z,3.25
2022-12-08T12:01:39.392Z,3.11
2022-12-08T12:05:04.709Z,3.11
2022-12-08T12:09:15.132Z,3.10
2022-12-08T12:12:39.659Z,3.22
2022-12-08T12:16:23.831Z,3.13
2022-12-08T12:19:33.577Z,3.54
2022-12-08T12:25:33.809Z,3.50
2022-12-08T12:28:30.604Z,3.55
2022-12-08T12:31:46.714Z,3.40
2022-12-08T12:34:56.252Z,3.59
2022-12-08T12:37:51.558Z,3.76
2022-12-08T12:40:45.469Z,3.63
2022-12-08T12:43:46.147Z,3.64
2022-12-08T12:46:26.887Z,3.93
2022-12-08T12:49:42.441Z,3.64
2022-12-08T12:52:24.060Z,3.99
2022-12-08T12:54:59.498Z,3.47
2022-12-08T12:57:52.109Z,3.44
2022-12-08T13:00:27.924Z,3.82
2022-12-08T13:03:00.786Z,3.90
2022-12-08T13:05:52.211Z,3.85
2022-12-08T13:08:27.971Z,3.90
2022-12-08T13:11:09.772Z,4.01
2022-12-08T13:14:03.595Z,3.78
2022-12-08T13:16:39.774Z,4.07
2022-12-08T13:19:16.336Z,3.99
2022-12-08T13:21:49.006Z,3.99
2022-12-08T13:24:24.471Z,3.80
2022-12-08T13:27:05.962Z,3.80
2022-12-08T13:29:39.960Z,4.16
2022-12-08T13:32:12.398Z,4.14
2022-12-08T13:35:00.200Z,4.19
2022-12-08T13:37:55.260Z,4.23
2022-12-08T13:40:32.043Z,4.22
2022-12-08T13:43:43.501Z,4.42
2022-12-08T13:47:09.924Z,4.17
2022-12-08T13:58:47.343Z,4.24
2022-12-08T14:01:24.697Z,4.22
2022-12-08T14:04:30.883Z,4.16
2022-12-08T14:07:00.805Z,4.05
2022-12-08T14:09:37.197Z,4.06
2022-12-08T14:12:21.908Z,3.94
2022-12-08T14:15:03.794Z,3.97
2022-12-08T14:17:39.494Z,3.93
2022-12-08T14:20:12.110Z,3.88
2022-12-08T14:22:44.720Z,3.82
2022-12-08T14:25:18.389Z,3.65
2022-12-08T14:28:01.208Z,3.81
2022-12-08T14:30:36.218Z,3.90
2022-12-08T14:33:16.779Z,3.85
2022-12-08T14:35:53.700Z,3.85
2022-12-08T14:38:26.793Z,3.75
2022-12-08T14:41:06.678Z,3.85
2022-12-08T14:43:40.884Z,3.88
2022-12-08T14:46:23.370Z,3.87
2022-12-08T14:48:57.934Z,3.87
2022-12-08T14:51:33.176Z,3.82
2022-12-08T14:54:18.754Z,3.83
2022-12-08T14:56:55.418Z,3.73
2022-12-08T14:59:33.231Z,3.64
2022-12-08T15:02:22.623Z,3.57
2022-12-08T15:05:11.249Z,3.40
2022-12-08T15:07:52.602Z,3.25
2022-12-08T15:10:38.035Z,3.33
2022-12-08T15:13:10.435Z,3.24
2022-12-08T15:15:53.907Z,3.21
2022-12-08T15:18:40.703Z,3.17
2022-12-08T15:21:13.291Z,2.91
2022-12-08T15:23:50.316Z,3.08
2022-12-08T15:26:26.192Z,3.07
2022-12-08T15:29:18.908Z,3.09
2022-12-08T15:31:54.925Z,2.89
2022-12-08T15:34:29.238Z,2.81
2022-12-08T15:37:05.000Z,2.78
2022-12-08T15:39:38.664Z,2.74
2022-12-08T15:42:13.118Z,2.65
2022-12-08T15:44:47.781Z,2.67
2022-12-08T15:47:25.858Z,2.58
2022-12-08T15:49:58.495Z,2.50
2022-12-08T15:52:31.149Z,2.21
2022-12-08T15:55:03.910Z,2.28
2022-12-08T15:58:30.836Z,2.29
2022-12-08T16:09:26.261Z,2.16
2022-12-08T16:12:18.149Z,2.29
2022-12-08T16:17:43.353Z,2.40
2022-12-08T16:20:18.130Z,2.28
2022-12-08T16:22:59.292Z,2.30
2022-12-08T16:26:08.909Z,2.42
2022-12-08T16:31:26.238Z,2.31
2022-12-08T16:33:58.972Z,2.45
2022-12-08T16:36:31.789Z,2.48
2022-12-08T16:39:04.418Z,2.20
2022-12-08T16:41:55.517Z,2.31
2022-12-08T16:44:28.153Z,2.08
2022-12-08T16:47:09.779Z,2.25
2022-12-08T16:49:42.351Z,2.02
2022-12-08T16:52:16.434Z,1.95
2022-12-08T16:54:49.064Z,2.00
2022-12-08T16:57:21.585Z,1.87
2022-12-08T16:59:54.236Z,1.82
2022-12-08T17:02:26.793Z,1.73
2022-12-08T17:04:59.472Z,1.74
2022-12-08T17:07:33.968Z,1.69
2022-12-08T17:10:09.190Z,1.69
2022-12-08T17:12:41.969Z,1.73
2022-12-08T17:15:19.391Z,1.83
2022-12-08T17:17:52.767Z,1.88
2022-12-08T17:20:28.341Z,1.93
2022-12-08T17:23:00.804Z,2.01
2022-12-08T17:25:33.399Z,2.05
2022-12-08T17:28:05.961Z,2.14
2022-12-08T17:30:38.766Z,2.01
2022-12-08T17:33:11.328Z,2.08
2022-12-08T17:35:49.011Z,1.99
2022-12-08T17:38:23.520Z,1.89
2022-12-08T17:41:03.348Z,2.09
2022-12-08T17:43:37.379Z,2.18
2022-12-08T17:46:10.010Z,2.06
2022-12-08T17:48:42.645Z,2.16
2022-12-08T17:51:16.417Z,2.09
2022-12-08T17:53:49.011Z,2.23
2022-12-08T17:56:22.004Z,2.21
2022-12-08T17:58:55.127Z,2.23
2022-12-08T18:01:28.011Z,2.21
2022-12-08T18:04:03.189Z,2.07
2022-12-08T18:06:37.621Z,2.21
2022-12-08T18:09:10.370Z,2.21
2022-12-08T18:11:46.126Z,2.27
2022-12-08T18:14:18.704Z,2.28
2022-12-08T18:16:51.448Z,2.25
2022-12-08T18:19:24.356Z,2.27
2022-12-08T18:21:56.975Z,2.29
2022-12-08T18:24:29.807Z,2.33
2022-12-08T18:27:02.563Z,2.33
2022-12-08T18:29:35.132Z,2.33
2022-12-08T18:32:08.404Z,2.35
2022-12-08T18:34:41.000Z,2.44
2022-12-08T18:37:13.550Z,2.31
2022-12-08T18:39:46.104Z,2.34
2022-12-08T18:42:24.986Z,2.40
2022-12-08T18:45:06.844Z,2.43
2022-12-08T18:47:40.720Z,2.30
2022-12-08T18:50:13.362Z,2.37
2022-12-08T18:52:47.071Z,2.37
2022-12-08T18:55:20.047Z,2.46
2022-12-08T18:57:52.650Z,2.29
2022-12-08T19:00:25.230Z,2.29
2022-12-08T19:02:57.807Z,2.45
2022-12-08T19:05:30.381Z,2.42
2022-12-08T19:08:03.779Z,2.36
2022-12-08T19:10:38.498Z,2.34
2022-12-08T19:13:11.144Z,2.37
2022-12-08T19:15:45.718Z,2.26
2022-12-08T19:18:18.634Z,2.47
2022-12-08T19:20:56.656Z,2.52
2022-12-08T19:23:29.364Z,2.37
2022-12-08T19:26:03.989Z,2.35
2022-12-08T19:28:37.184Z,2.50
2022-12-08T19:31:10.565Z,2.52
2022-12-08T19:33:43.306Z,2.42
2022-12-08T19:36:21.097Z,2.55
2022-12-08T19:39:12.406Z,2.44
2022-12-08T19:42:04.271Z,2.42
2022-12-08T19:44:55.109Z,2.29
2022-12-08T19:47:28.026Z,2.34
2022-12-08T19:50:20.121Z,2.19
2022-12-08T19:52:53.067Z,2.19
2022-12-08T19:55:27.059Z,2.33
2022-12-08T19:58:02.097Z,2.22
2022-12-08T20:00:36.766Z,2.13
2022-12-08T20:03:15.396Z,2.06
2022-12-08T20:05:51.154Z,1.89
2022-12-08T20:08:23.767Z,1.91
2022-12-08T20:10:58.959Z,1.94
2022-12-08T20:13:47.853Z,1.92
2022-12-08T20:16:20.765Z,1.75
2022-12-08T20:18:53.367Z,1.67
2022-12-08T20:21:26.018Z,1.67
2022-12-08T20:23:58.766Z,1.60
2022-12-08T20:26:34.047Z,1.48
2022-12-08T20:29:07.137Z,1.47
2022-12-08T20:31:40.189Z,1.38
2022-12-08T20:34:18.282Z,1.36
2022-12-08T20:36:50.823Z,1.24
2022-12-08T20:39:23.727Z,1.19
2022-12-08T20:41:56.669Z,1.16
2022-12-08T20:44:30.133Z,1.04
2022-12-08T20:47:03.077Z,0.98
2022-12-08T20:49:35.956Z,1.08
2022-12-08T20:52:09.453Z,1.18
2022-12-08T20:54:42.267Z,1.15
2022-12-08T20:57:14.845Z,1.13
2022-12-08T20:59:47.792Z,1.17
2022-12-08T21:02:20.651Z,1.11
2022-12-08T21:04:54.298Z,1.15
2022-12-08T21:07:26.962Z,1.00
2022-12-08T21:09:59.662Z,1.00
2022-12-08T21:12:32.303Z,1.07
2022-12-08T21:15:07.788Z,1.02
2022-12-08T21:17:40.924Z,1.00
2022-12-08T21:20:13.649Z,1.02
2022-12-08T21:22:46.475Z,0.97
2022-12-08T21:25:19.259Z,0.92
2022-12-08T21:27:51.731Z,0.93
2022-12-08T21:30:24.407Z,1.03
2022-12-08T21:32:57.075Z,1.02
2022-12-08T21:35:30.018Z,0.85
2022-12-08T21:38:06.450Z,1.03
2022-12-08T21:40:39.329Z,1.10
2022-12-08T21:43:13.705Z,1.07
2022-12-08T21:45:46.363Z,1.08
2022-12-08T21:48:19.171Z,1.09
2022-12-08T21:50:53.426Z,0.97
2022-12-08T21:53:26.601Z,1.07
2022-12-08T21:55:59.514Z,1.13
2022-12-08T21:58:32.703Z,1.13
2022-12-08T22:01:11.502Z,1.06
2022-12-08T22:03:44.667Z,0.98
2022-12-08T22:06:17.686Z,1.07
2022-12-08T22:08:50.488Z,1.03
2022-12-08T22:11:23.686Z,0.99
2022-12-08T22:13:56.392Z,1.10
2022-12-08T22:16:29.094Z,0.92
2022-12-08T22:19:02.014Z,1.00
2022-12-08T22:21:34.820Z,0.89
2022-12-08T22:24:08.290Z,0.93
2022-12-08T22:26:40.956Z,0.87
2022-12-08T22:29:14.112Z,0.67
2022-12-08T22:31:46.716Z,0.67
2022-12-08T22:34:19.540Z,0.64
2022-12-08T22:36:52.106Z,0.60
2022-12-08T22:39:24.711Z,0.49
2022-12-08T22:41:57.157Z,0.39
2022-12-08T22:44:29.761Z,0.34
2022-12-08T22:47:02.319Z,0.32
2022-12-08T22:49:36.392Z,0.30
2022-12-08T22:52:09.135Z,0.27
2022-12-08T22:54:41.951Z,0.21
2022-12-08T22:57:14.906Z,0.17
2022-12-08T22:59:47.435Z,0.28
2022-12-08T23:02:20.153Z,0.37
2022-12-08T23:04:57.578Z,0.38
2022-12-08T23:07:30.683Z,0.50
2022-12-08T23:10:04.129Z,0.57
2022-12-08T23:12:37.102Z,0.64
2022-12-08T23:15:10.059Z,0.70
2022-12-08T23:17:42.931Z,0.80
2022-12-08T23:20:15.619Z,0.86
2022-12-08T23:22:48.132Z,0.90
2022-12-08T23:25:20.625Z,0.87
2022-12-08T23:27:53.340Z,0.96
2022-12-08T23:30:26.216Z,1.02
2022-12-08T23:32:59.359Z,1.11
2022-12-08T23:35:32.179Z,1.21
2022-12-08T23:38:05.106Z,1.06
2022-12-08T23:40:37.621Z,1.25
2022-12-08T23:43:10.133Z,1.17
2022-12-08T23:45:43.393Z,1.28
2022-12-08T23:48:16.005Z,1.31
2022-12-08T23:50:48.660Z,1.31
2022-12-08T23:53:21.643Z,1.19
2022-12-08T23:56:07.835Z,1.26
2022-12-08T23:58:41.697Z,1.28
